sensor_id;sensor_type;location;lat;lon;timestamp;temperature;humidity
5246;DHT22;54412;51.206;6.888;2022-09-01T00:01:38;20.60;96.00
5246;DHT22;54412;51.206;6.888;2022-09-01T00:04:07;20.60;96.20
5246;DHT22;54412;51.206;6.888;2022-09-01T00:06:36;20.60;96.00
5246;DHT22;54412;51.206;6.888;2022-09-01T00:09:07;20.60;96.30
5246;DHT22;54412;51.206;6.888;2022-09-01T00:11:37;20.60;96.30
5246;DHT22;54412;51.206;6.888;2022-09-01T00:14:06;20.50;96.50
5246;DHT22;54412;51.206;6.888;2022-09-01T00:16:34;20.40;96.90
5246;DHT22;54412;51.206;6.888;2022-09-01T00:19:00;20.30;97.00
5246;DHT22;54412;51.206;6.888;2022-09-01T00:21:33;20.30;97.20
5246;DHT22;54412;51.206;6.888;2022-09-01T00:24:05;20.30;97.40
5246;DHT22;54412;51.206;6.888;2022-09-01T00:26:33;20.30;97.30
5246;DHT22;54412;51.206;6.888;2022-09-01T00:28:59;20.10;97.30
5246;DHT22;54412;51.206;6.888;2022-09-01T00:31:26;20.10;97.60
5246;DHT22;54412;51.206;6.888;2022-09-01T00:33:52;20.20;97.40
5246;DHT22;54412;51.206;6.888;2022-09-01T00:36:20;20.10;97.50
5246;DHT22;54412;51.206;6.888;2022-09-01T00:38:46;20.10;97.70
5246;DHT22;54412;51.206;6.888;2022-09-01T00:41:14;20.10;97.70
5246;DHT22;54412;51.206;6.888;2022-09-01T00:43:52;20.10;97.90
5246;DHT22;54412;51.206;6.888;2022-09-01T00:46:23;20.10;98.00
5246;DHT22;54412;51.206;6.888;2022-09-01T00:48:59;20.20;97.80
5246;DHT22;54412;51.206;6.888;2022-09-01T00:51:37;20.20;97.90
5246;DHT22;54412;51.206;6.888;2022-09-01T00:54:07;20.20;97.70
5246;DHT22;54412;51.206;6.888;2022-09-01T00:56:39;20.30;97.80
5246;DHT22;54412;51.206;6.888;2022-09-01T00:59:08;20.20;97.80
5246;DHT22;54412;51.206;6.888;2022-09-01T01:01:36;20.30;97.90
5246;DHT22;54412;51.206;6.888;2022-09-01T01:04:06;20.30;97.70
5246;DHT22;54412;51.206;6.888;2022-09-01T01:06:41;20.30;97.90
5246;DHT22;54412;51.206;6.888;2022-09-01T01:09:10;20.30;97.90
5246;DHT22;54412;51.206;6.888;2022-09-01T01:11:36;20.30;97.90
5246;DHT22;54412;51.206;6.888;2022-09-01T01:14:07;20.20;97.90
5246;DHT22;54412;51.206;6.888;2022-09-01T01:16:38;20.20;98.20
5246;DHT22;54412;51.206;6.888;2022-09-01T01:19:23;20.20;98.20
5246;DHT22;54412;51.206;6.888;2022-09-01T01:22:13;20.20;98.20
5246;DHT22;54412;51.206;6.888;2022-09-01T01:25:05;20.10;98.30
5246;DHT22;54412;51.206;6.888;2022-09-01T01:27:33;20.10;98.60
5246;DHT22;54412;51.206;6.888;2022-09-01T01:30:01;20.20;98.50
5246;DHT22;54412;51.206;6.888;2022-09-01T01:32:29;20.10;98.50
5246;DHT22;54412;51.206;6.888;2022-09-01T01:34:55;20.10;98.50
5246;DHT22;54412;51.206;6.888;2022-09-01T01:37:22;20.00;98.50
5246;DHT22;54412;51.206;6.888;2022-09-01T01:39:49;20.00;98.60
5246;DHT22;54412;51.206;6.888;2022-09-01T01:42:16;20.00;98.80
5246;DHT22;54412;51.206;6.888;2022-09-01T01:44:42;20.10;98.70
5246;DHT22;54412;51.206;6.888;2022-09-01T01:47:11;20.10;98.70
5246;DHT22;54412;51.206;6.888;2022-09-01T01:49:39;20.20;99.00
5246;DHT22;54412;51.206;6.888;2022-09-01T01:52:10;20.10;99.10
5246;DHT22;54412;51.206;6.888;2022-09-01T01:54:43;20.10;98.90
5246;DHT22;54412;51.206;6.888;2022-09-01T01:57:11;20.00;99.20
5246;DHT22;54412;51.206;6.888;2022-09-01T01:59:41;20.00;99.30
5246;DHT22;54412;51.206;6.888;2022-09-01T02:02:07;19.90;99.40
5246;DHT22;54412;51.206;6.888;2022-09-01T02:04:37;19.80;99.40
5246;DHT22;54412;51.206;6.888;2022-09-01T02:09:44;19.70;99.70
5246;DHT22;54412;51.206;6.888;2022-09-01T02:12:10;19.70;99.50
5246;DHT22;54412;51.206;6.888;2022-09-01T02:14:36;19.70;99.50
5246;DHT22;54412;51.206;6.888;2022-09-01T02:17:03;19.70;99.70
5246;DHT22;54412;51.206;6.888;2022-09-01T02:19:32;19.60;99.90
5246;DHT22;54412;51.206;6.888;2022-09-01T02:22:07;19.60;99.90
5246;DHT22;54412;51.206;6.888;2022-09-01T02:24:35;19.60;99.80
5246;DHT22;54412;51.206;6.888;2022-09-01T02:27:03;19.60;99.90
5246;DHT22;54412;51.206;6.888;2022-09-01T02:29:29;19.60;99.90
5246;DHT22;54412;51.206;6.888;2022-09-01T02:31:55;19.60;99.90
5246;DHT22;54412;51.206;6.888;2022-09-01T02:34:23;19.60;99.90
5246;DHT22;54412;51.206;6.888;2022-09-01T02:36:52;19.60;99.90
5246;DHT22;54412;51.206;6.888;2022-09-01T02:39:21;19.50;99.90
5246;DHT22;54412;51.206;6.888;2022-09-01T02:41:49;19.50;99.90
5246;DHT22;54412;51.206;6.888;2022-09-01T02:44:16;19.50;99.90
5246;DHT22;54412;51.206;6.888;2022-09-01T02:46:45;19.60;99.90
5246;DHT22;54412;51.206;6.888;2022-09-01T02:49:15;19.60;99.90
5246;DHT22;54412;51.206;6.888;2022-09-01T02:51:47;19.60;99.80
5246;DHT22;54412;51.206;6.888;2022-09-01T02:54:15;19.60;99.80
5246;DHT22;54412;51.206;6.888;2022-09-01T02:56:43;19.60;99.50
5246;DHT22;54412;51.206;6.888;2022-09-01T02:59:13;19.70;99.30
5246;DHT22;54412;51.206;6.888;2022-09-01T03:01:46;19.80;99.40
5246;DHT22;54412;51.206;6.888;2022-09-01T03:04:16;19.70;99.40
5246;DHT22;54412;51.206;6.888;2022-09-01T03:06:43;19.70;99.20
5246;DHT22;54412;51.206;6.888;2022-09-01T03:09:13;19.60;99.40
5246;DHT22;54412;51.206;6.888;2022-09-01T03:11:44;19.60;99.50
5246;DHT22;54412;51.206;6.888;2022-09-01T03:14:12;19.70;99.50
5246;DHT22;54412;51.206;6.888;2022-09-01T03:16:38;19.60;99.70
5246;DHT22;54412;51.206;6.888;2022-09-01T03:19:05;19.70;99.70
5246;DHT22;54412;51.206;6.888;2022-09-01T03:21:39;19.60;99.90
5246;DHT22;54412;51.206;6.888;2022-09-01T03:24:12;19.60;99.90
5246;DHT22;54412;51.206;6.888;2022-09-01T03:26:41;19.60;99.70
5246;DHT22;54412;51.206;6.888;2022-09-01T03:29:09;19.60;99.80
5246;DHT22;54412;51.206;6.888;2022-09-01T03:31:35;19.60;99.70
5246;DHT22;54412;51.206;6.888;2022-09-01T03:34:02;19.70;99.50
5246;DHT22;54412;51.206;6.888;2022-09-01T03:36:30;19.70;99.40
5246;DHT22;54412;51.206;6.888;2022-09-01T03:38:58;19.70;99.30
5246;DHT22;54412;51.206;6.888;2022-09-01T03:41:26;19.70;99.30
5246;DHT22;54412;51.206;6.888;2022-09-01T03:43:55;19.70;99.30
5246;DHT22;54412;51.206;6.888;2022-09-01T03:46:24;19.70;99.30
5246;DHT22;54412;51.206;6.888;2022-09-01T03:48:54;19.60;99.30
5246;DHT22;54412;51.206;6.888;2022-09-01T03:51:23;19.50;99.30
5246;DHT22;54412;51.206;6.888;2022-09-01T03:53:51;19.40;99.80
5246;DHT22;54412;51.206;6.888;2022-09-01T03:56:22;19.40;99.80
5246;DHT22;54412;51.206;6.888;2022-09-01T03:58:51;19.40;99.90
5246;DHT22;54412;51.206;6.888;2022-09-01T04:01:17;19.30;99.90
5246;DHT22;54412;51.206;6.888;2022-09-01T04:03:44;19.40;99.90
5246;DHT22;54412;51.206;6.888;2022-09-01T04:06:13;19.40;99.90
5246;DHT22;54412;51.206;6.888;2022-09-01T04:08:42;19.40;99.90
5246;DHT22;54412;51.206;6.888;2022-09-01T04:11:15;19.30;99.90
5246;DHT22;54412;51.206;6.888;2022-09-01T04:13:48;19.30;99.90
5246;DHT22;54412;51.206;6.888;2022-09-01T04:16:31;19.40;99.90
5246;DHT22;54412;51.206;6.888;2022-09-01T04:19:19;19.40;99.90
5246;DHT22;54412;51.206;6.888;2022-09-01T04:21:51;19.30;99.90
5246;DHT22;54412;51.206;6.888;2022-09-01T04:24:21;19.30;99.90
5246;DHT22;54412;51.206;6.888;2022-09-01T04:26:50;19.30;99.90
5246;DHT22;54412;51.206;6.888;2022-09-01T04:29:17;19.20;99.90
5246;DHT22;54412;51.206;6.888;2022-09-01T04:31:52;19.30;99.90
5246;DHT22;54412;51.206;6.888;2022-09-01T04:34:21;19.20;99.90
5246;DHT22;54412;51.206;6.888;2022-09-01T04:36:49;19.30;99.70
5246;DHT22;54412;51.206;6.888;2022-09-01T04:39:19;19.30;99.80
5246;DHT22;54412;51.206;6.888;2022-09-01T04:41:45;19.40;99.90
5246;DHT22;54412;51.206;6.888;2022-09-01T04:44:14;19.40;99.90
5246;DHT22;54412;51.206;6.888;2022-09-01T04:46:44;19.30;99.60
5246;DHT22;54412;51.206;6.888;2022-09-01T04:49:13;19.30;99.70
5246;DHT22;54412;51.206;6.888;2022-09-01T04:51:46;19.30;99.80
5246;DHT22;54412;51.206;6.888;2022-09-01T04:54:16;19.20;99.90
5246;DHT22;54412;51.206;6.888;2022-09-01T04:56:45;19.20;99.90
5246;DHT22;54412;51.206;6.888;2022-09-01T04:59:14;19.30;99.90
5246;DHT22;54412;51.206;6.888;2022-09-01T05:01:41;19.30;99.80
5246;DHT22;54412;51.206;6.888;2022-09-01T05:04:22;19.30;99.80
5246;DHT22;54412;51.206;6.888;2022-09-01T05:06:53;19.20;99.60
5246;DHT22;54412;51.206;6.888;2022-09-01T05:09:24;19.30;99.70
5246;DHT22;54412;51.206;6.888;2022-09-01T05:11:51;19.30;99.70
5246;DHT22;54412;51.206;6.888;2022-09-01T05:14:17;19.30;99.60
5246;DHT22;54412;51.206;6.888;2022-09-01T05:16:44;19.30;99.80
5246;DHT22;54412;51.206;6.888;2022-09-01T05:19:11;19.20;99.70
5246;DHT22;54412;51.206;6.888;2022-09-01T05:21:40;19.30;99.90
5246;DHT22;54412;51.206;6.888;2022-09-01T05:24:17;19.30;99.90
5246;DHT22;54412;51.206;6.888;2022-09-01T05:26:46;19.30;99.80
5246;DHT22;54412;51.206;6.888;2022-09-01T05:29:15;19.20;99.90
5246;DHT22;54412;51.206;6.888;2022-09-01T05:31:43;19.20;99.90
5246;DHT22;54412;51.206;6.888;2022-09-01T05:34:11;19.20;99.60
5246;DHT22;54412;51.206;6.888;2022-09-01T05:36:41;19.10;99.70
5246;DHT22;54412;51.206;6.888;2022-09-01T05:39:09;19.20;99.80
5246;DHT22;54412;51.206;6.888;2022-09-01T05:41:39;19.20;99.70
5246;DHT22;54412;51.206;6.888;2022-09-01T05:44:06;19.30;99.50
5246;DHT22;54412;51.206;6.888;2022-09-01T05:46:34;19.20;99.20
5246;DHT22;54412;51.206;6.888;2022-09-01T05:49:02;19.10;99.30
5246;DHT22;54412;51.206;6.888;2022-09-01T05:51:31;19.10;99.30
5246;DHT22;54412;51.206;6.888;2022-09-01T05:54:00;19.10;99.50
5246;DHT22;54412;51.206;6.888;2022-09-01T05:56:28;19.20;99.40
5246;DHT22;54412;51.206;6.888;2022-09-01T05:58:55;19.20;99.30
5246;DHT22;54412;51.206;6.888;2022-09-01T06:01:26;19.20;99.20
5246;DHT22;54412;51.206;6.888;2022-09-01T06:03:56;19.20;99.40
5246;DHT22;54412;51.206;6.888;2022-09-01T06:06:30;19.30;99.30
5246;DHT22;54412;51.206;6.888;2022-09-01T06:09:07;19.30;99.20
5246;DHT22;54412;51.206;6.888;2022-09-01T06:11:35;19.40;99.20
5246;DHT22;54412;51.206;6.888;2022-09-01T06:14:01;19.40;99.10
5246;DHT22;54412;51.206;6.888;2022-09-01T06:16:28;19.40;99.10
5246;DHT22;54412;51.206;6.888;2022-09-01T06:18:56;19.50;99.10
5246;DHT22;54412;51.206;6.888;2022-09-01T06:21:24;19.50;99.10
5246;DHT22;54412;51.206;6.888;2022-09-01T06:23:54;19.60;98.90
5246;DHT22;54412;51.206;6.888;2022-09-01T06:26:25;19.70;98.90
5246;DHT22;54412;51.206;6.888;2022-09-01T06:28:55;19.80;98.80
5246;DHT22;54412;51.206;6.888;2022-09-01T06:31:24;19.80;98.80
5246;DHT22;54412;51.206;6.888;2022-09-01T06:33:53;19.90;98.80
5246;DHT22;54412;51.206;6.888;2022-09-01T06:36:21;19.90;98.50
5246;DHT22;54412;51.206;6.888;2022-09-01T06:38:49;20.00;98.40
5246;DHT22;54412;51.206;6.888;2022-09-01T06:41:16;19.90;98.20
5246;DHT22;54412;51.206;6.888;2022-09-01T06:43:48;20.10;98.30
5246;DHT22;54412;51.206;6.888;2022-09-01T06:46:16;20.20;98.30
5246;DHT22;54412;51.206;6.888;2022-09-01T06:48:44;20.30;98.50
5246;DHT22;54412;51.206;6.888;2022-09-01T06:51:20;20.30;98.30
5246;DHT22;54412;51.206;6.888;2022-09-01T06:53:49;20.40;98.10
5246;DHT22;54412;51.206;6.888;2022-09-01T06:56:22;20.50;98.10
5246;DHT22;54412;51.206;6.888;2022-09-01T06:58:51;20.60;97.90
5246;DHT22;54412;51.206;6.888;2022-09-01T07:01:19;20.80;97.90
5246;DHT22;54412;51.206;6.888;2022-09-01T07:03:48;20.80;97.40
5246;DHT22;54412;51.206;6.888;2022-09-01T07:06:17;21.00;97.60
5246;DHT22;54412;51.206;6.888;2022-09-01T07:08:49;21.00;97.10
5246;DHT22;54412;51.206;6.888;2022-09-01T07:11:20;21.00;96.70
5246;DHT22;54412;51.206;6.888;2022-09-01T07:13:54;21.20;97.00
5246;DHT22;54412;51.206;6.888;2022-09-01T07:16:23;21.40;96.40
5246;DHT22;54412;51.206;6.888;2022-09-01T07:18:53;21.40;96.30
5246;DHT22;54412;51.206;6.888;2022-09-01T07:21:23;21.40;95.80
5246;DHT22;54412;51.206;6.888;2022-09-01T07:23:49;21.60;95.60
5246;DHT22;54412;51.206;6.888;2022-09-01T07:26:16;21.60;95.70
5246;DHT22;54412;51.206;6.888;2022-09-01T07:28:48;21.80;96.10
5246;DHT22;54412;51.206;6.888;2022-09-01T07:31:19;22.10;95.60
5246;DHT22;54412;51.206;6.888;2022-09-01T07:33:48;22.10;95.40
5246;DHT22;54412;51.206;6.888;2022-09-01T07:36:16;22.40;95.40
5246;DHT22;54412;51.206;6.888;2022-09-01T07:38:43;22.60;95.00
5246;DHT22;54412;51.206;6.888;2022-09-01T07:41:10;22.60;94.50
5246;DHT22;54412;51.206;6.888;2022-09-01T07:43:40;22.70;94.10
5246;DHT22;54412;51.206;6.888;2022-09-01T07:46:09;22.70;94.10
5246;DHT22;54412;51.206;6.888;2022-09-01T07:48:36;22.90;94.30
5246;DHT22;54412;51.206;6.888;2022-09-01T07:51:04;22.90;93.70
5246;DHT22;54412;51.206;6.888;2022-09-01T07:53:32;23.10;93.30
5246;DHT22;54412;51.206;6.888;2022-09-01T07:56:04;23.20;93.10
5246;DHT22;54412;51.206;6.888;2022-09-01T07:58:33;23.40;92.60
5246;DHT22;54412;51.206;6.888;2022-09-01T08:01:05;23.40;92.60
5246;DHT22;54412;51.206;6.888;2022-09-01T08:03:40;23.50;92.40
5246;DHT22;54412;51.206;6.888;2022-09-01T08:06:11;23.50;92.20
5246;DHT22;54412;51.206;6.888;2022-09-01T08:08:39;23.60;91.60
5246;DHT22;54412;51.206;6.888;2022-09-01T08:11:06;23.50;90.80
5246;DHT22;54412;51.206;6.888;2022-09-01T08:13:34;23.60;91.40
5246;DHT22;54412;51.206;6.888;2022-09-01T08:16:06;23.70;91.10
5246;DHT22;54412;51.206;6.888;2022-09-01T08:18:32;23.80;90.60
5246;DHT22;54412;51.206;6.888;2022-09-01T08:20:58;23.80;86.50
5246;DHT22;54412;51.206;6.888;2022-09-01T08:23:24;23.70;87.20
5246;DHT22;54412;51.206;6.888;2022-09-01T08:25:52;23.80;85.50
5246;DHT22;54412;51.206;6.888;2022-09-01T08:28:19;23.90;85.70
5246;DHT22;54412;51.206;6.888;2022-09-01T08:30:45;24.00;85.10
5246;DHT22;54412;51.206;6.888;2022-09-01T08:33:13;24.20;85.10
5246;DHT22;54412;51.206;6.888;2022-09-01T08:35:46;24.20;83.10
5246;DHT22;54412;51.206;6.888;2022-09-01T08:38:12;24.20;82.70
5246;DHT22;54412;51.206;6.888;2022-09-01T08:40:40;24.30;82.20
5246;DHT22;54412;51.206;6.888;2022-09-01T08:46:08;24.60;80.40
5246;DHT22;54412;51.206;6.888;2022-09-01T08:48:48;24.70;79.70
5246;DHT22;54412;51.206;6.888;2022-09-01T08:54:25;24.80;74.10
5246;DHT22;54412;51.206;6.888;2022-09-01T08:57:01;24.90;72.10
5246;DHT22;54412;51.206;6.888;2022-09-01T08:59:31;24.90;71.00
5246;DHT22;54412;51.206;6.888;2022-09-01T09:18:48;25.40;67.30
5246;DHT22;54412;51.206;6.888;2022-09-01T09:21:40;25.50;69.50
5246;DHT22;54412;51.206;6.888;2022-09-01T09:24:27;25.80;68.80
5246;DHT22;54412;51.206;6.888;2022-09-01T09:26:56;25.90;68.90
5246;DHT22;54412;51.206;6.888;2022-09-01T09:29:24;25.70;67.60
5246;DHT22;54412;51.206;6.888;2022-09-01T09:32:08;25.50;66.30
5246;DHT22;54412;51.206;6.888;2022-09-01T09:34:41;25.60;68.60
5246;DHT22;54412;51.206;6.888;2022-09-01T09:37:24;25.60;66.90
5246;DHT22;54412;51.206;6.888;2022-09-01T09:40:14;25.40;67.30
5246;DHT22;54412;51.206;6.888;2022-09-01T09:45:33;25.80;69.40
5246;DHT22;54412;51.206;6.888;2022-09-01T09:48:09;25.90;67.40
5246;DHT22;54412;51.206;6.888;2022-09-01T09:50:51;26.10;67.60
5246;DHT22;54412;51.206;6.888;2022-09-01T09:58:41;26.50;67.70
5246;DHT22;54412;51.206;6.888;2022-09-01T10:04:00;26.60;66.30
5246;DHT22;54412;51.206;6.888;2022-09-01T10:06:41;26.70;67.00
5246;DHT22;54412;51.206;6.888;2022-09-01T10:09:34;26.30;65.90
5246;DHT22;54412;51.206;6.888;2022-09-01T10:12:03;26.60;68.50
5246;DHT22;54412;51.206;6.888;2022-09-01T10:14:59;26.00;65.20
5246;DHT22;54412;51.206;6.888;2022-09-01T10:17:33;26.20;66.70
5246;DHT22;54412;51.206;6.888;2022-09-01T10:20:24;26.50;69.90
5246;DHT22;54412;51.206;6.888;2022-09-01T10:22:51;27.00;67.40
5246;DHT22;54412;51.206;6.888;2022-09-01T10:25:27;26.80;64.20
5246;DHT22;54412;51.206;6.888;2022-09-01T10:28:11;26.60;66.30
5246;DHT22;54412;51.206;6.888;2022-09-01T10:30:43;26.70;65.90
5246;DHT22;54412;51.206;6.888;2022-09-01T10:33:13;26.90;67.70
5246;DHT22;54412;51.206;6.888;2022-09-01T10:35:44;27.00;66.00
5246;DHT22;54412;51.206;6.888;2022-09-01T10:40:49;26.40;64.80
5246;DHT22;54412;51.206;6.888;2022-09-01T10:43:33;26.60;67.00
5246;DHT22;54412;51.206;6.888;2022-09-01T10:48:57;26.50;64.20
5246;DHT22;54412;51.206;6.888;2022-09-01T10:53:53;26.50;65.90
5246;DHT22;54412;51.206;6.888;2022-09-01T11:06:57;28.10;63.90
5246;DHT22;54412;51.206;6.888;2022-09-01T11:15:49;27.70;64.10
5246;DHT22;54412;51.206;6.888;2022-09-01T11:18:29;28.00;64.00
5246;DHT22;54412;51.206;6.888;2022-09-01T11:21:34;27.30;60.60
5246;DHT22;54412;51.206;6.888;2022-09-01T11:30:22;26.50;65.80
5246;DHT22;54412;51.206;6.888;2022-09-01T11:33:12;26.10;66.20
5246;DHT22;54412;51.206;6.888;2022-09-01T11:36:06;26.20;67.00
5246;DHT22;54412;51.206;6.888;2022-09-01T11:38:53;25.70;65.80
5246;DHT22;54412;51.206;6.888;2022-09-01T11:44:15;25.70;66.60
5246;DHT22;54412;51.206;6.888;2022-09-01T11:47:03;26.10;67.40
5246;DHT22;54412;51.206;6.888;2022-09-01T11:49:38;26.60;66.40
5246;DHT22;54412;51.206;6.888;2022-09-01T11:52:15;27.30;66.10
5246;DHT22;54412;51.206;6.888;2022-09-01T11:54:43;27.60;65.10
5246;DHT22;54412;51.206;6.888;2022-09-01T11:57:25;27.50;61.80
5246;DHT22;54412;51.206;6.888;2022-09-01T11:59:55;27.20;62.20
5246;DHT22;54412;51.206;6.888;2022-09-01T12:02:26;27.30;63.00
5246;DHT22;54412;51.206;6.888;2022-09-01T12:05:43;27.60;63.00
5246;DHT22;54412;51.206;6.888;2022-09-01T12:08:14;27.60;61.20
5246;DHT22;54412;51.206;6.888;2022-09-01T12:10:43;26.80;64.20
5246;DHT22;54412;51.206;6.888;2022-09-01T12:13:22;26.50;63.70
5246;DHT22;54412;51.206;6.888;2022-09-01T12:15:57;26.10;64.00
5246;DHT22;54412;51.206;6.888;2022-09-01T12:18:33;26.60;65.60
5246;DHT22;54412;51.206;6.888;2022-09-01T12:21:03;26.70;64.80
5246;DHT22;54412;51.206;6.888;2022-09-01T12:23:37;26.70;65.10
5246;DHT22;54412;51.206;6.888;2022-09-01T12:26:27;26.80;66.50
5246;DHT22;54412;51.206;6.888;2022-09-01T12:28:54;27.00;64.60
5246;DHT22;54412;51.206;6.888;2022-09-01T12:31:23;27.20;64.40
5246;DHT22;54412;51.206;6.888;2022-09-01T12:33:52;27.10;66.50
5246;DHT22;54412;51.206;6.888;2022-09-01T12:36:38;26.90;67.00
5246;DHT22;54412;51.206;6.888;2022-09-01T12:39:24;26.40;65.80
5246;DHT22;54412;51.206;6.888;2022-09-01T12:42:06;26.30;67.40
5246;DHT22;54412;51.206;6.888;2022-09-01T12:47:06;26.30;67.40
5246;DHT22;54412;51.206;6.888;2022-09-01T12:49:47;26.80;67.10
5246;DHT22;54412;51.206;6.888;2022-09-01T12:54:49;26.30;65.70
5246;DHT22;54412;51.206;6.888;2022-09-01T12:57:33;26.20;67.50
5246;DHT22;54412;51.206;6.888;2022-09-01T13:02:43;26.10;67.10
5246;DHT22;54412;51.206;6.888;2022-09-01T13:08:18;25.50;68.10
5246;DHT22;54412;51.206;6.888;2022-09-01T13:11:12;25.70;68.70
5246;DHT22;54412;51.206;6.888;2022-09-01T13:13:39;25.90;68.90
5246;DHT22;54412;51.206;6.888;2022-09-01T13:16:05;26.10;69.20
5246;DHT22;54412;51.206;6.888;2022-09-01T13:18:37;26.70;67.40
5246;DHT22;54412;51.206;6.888;2022-09-01T13:21:04;27.50;63.90
5246;DHT22;54412;51.206;6.888;2022-09-01T13:23:31;27.00;63.40
5246;DHT22;54412;51.206;6.888;2022-09-01T13:25:58;27.10;65.10
5246;DHT22;54412;51.206;6.888;2022-09-01T13:28:24;27.10;65.00
5246;DHT22;54412;51.206;6.888;2022-09-01T13:30:59;27.40;65.90
5246;DHT22;54412;51.206;6.888;2022-09-01T13:33:31;27.80;64.60
5246;DHT22;54412;51.206;6.888;2022-09-01T13:35:59;27.90;59.50
5246;DHT22;54412;51.206;6.888;2022-09-01T13:38:25;28.00;60.60
5246;DHT22;54412;51.206;6.888;2022-09-01T13:40:51;28.10;59.90
5246;DHT22;54412;51.206;6.888;2022-09-01T13:43:19;28.10;61.60
5246;DHT22;54412;51.206;6.888;2022-09-01T13:45:47;27.70;61.30
5246;DHT22;54412;51.206;6.888;2022-09-01T13:48:15;27.30;63.40
5246;DHT22;54412;51.206;6.888;2022-09-01T13:50:41;26.90;65.10
5246;DHT22;54412;51.206;6.888;2022-09-01T13:53:09;26.70;65.20
5246;DHT22;54412;51.206;6.888;2022-09-01T13:55:38;26.50;66.30
5246;DHT22;54412;51.206;6.888;2022-09-01T13:58:05;26.40;65.60
5246;DHT22;54412;51.206;6.888;2022-09-01T14:00:37;26.20;66.20
5246;DHT22;54412;51.206;6.888;2022-09-01T14:03:12;26.20;67.60
5246;DHT22;54412;51.206;6.888;2022-09-01T14:05:43;26.70;66.50
5246;DHT22;54412;51.206;6.888;2022-09-01T14:08:14;27.00;67.10
5246;DHT22;54412;51.206;6.888;2022-09-01T14:10:46;26.90;66.20
5246;DHT22;54412;51.206;6.888;2022-09-01T14:13:15;26.80;67.10
5246;DHT22;54412;51.206;6.888;2022-09-01T14:15:42;26.90;67.70
5246;DHT22;54412;51.206;6.888;2022-09-01T14:18:09;26.80;66.80
5246;DHT22;54412;51.206;6.888;2022-09-01T14:20:37;26.70;66.10
5246;DHT22;54412;51.206;6.888;2022-09-01T14:23:08;26.60;67.60
5246;DHT22;54412;51.206;6.888;2022-09-01T14:25:35;26.80;66.30
5246;DHT22;54412;51.206;6.888;2022-09-01T14:28:06;27.30;65.60
5246;DHT22;54412;51.206;6.888;2022-09-01T14:30:32;27.70;66.70
5246;DHT22;54412;51.206;6.888;2022-09-01T14:32:59;27.90;63.90
5246;DHT22;54412;51.206;6.888;2022-09-01T14:35:26;27.70;63.30
5246;DHT22;54412;51.206;6.888;2022-09-01T14:37:53;27.40;63.50
5246;DHT22;54412;51.206;6.888;2022-09-01T14:40:21;27.10;63.90
5246;DHT22;54412;51.206;6.888;2022-09-01T14:42:50;26.80;64.50
5246;DHT22;54412;51.206;6.888;2022-09-01T14:45:26;26.70;64.10
5246;DHT22;54412;51.206;6.888;2022-09-01T14:47:55;26.60;65.40
5246;DHT22;54412;51.206;6.888;2022-09-01T14:50:24;26.40;65.20
5246;DHT22;54412;51.206;6.888;2022-09-01T14:52:54;26.20;66.40
5246;DHT22;54412;51.206;6.888;2022-09-01T14:55:22;26.10;65.70
5246;DHT22;54412;51.206;6.888;2022-09-01T14:57:50;26.00;67.40
5246;DHT22;54412;51.206;6.888;2022-09-01T15:00:19;26.00;68.40
5246;DHT22;54412;51.206;6.888;2022-09-01T15:02:47;26.00;67.40
5246;DHT22;54412;51.206;6.888;2022-09-01T15:05:13;26.00;68.30
5246;DHT22;54412;51.206;6.888;2022-09-01T15:07:39;26.00;69.20
5246;DHT22;54412;51.206;6.888;2022-09-01T15:10:09;26.00;68.30
5246;DHT22;54412;51.206;6.888;2022-09-01T15:12:36;26.10;67.90
5246;DHT22;54412;51.206;6.888;2022-09-01T15:15:05;26.10;67.60
5246;DHT22;54412;51.206;6.888;2022-09-01T15:17:32;26.20;66.50
5246;DHT22;54412;51.206;6.888;2022-09-01T15:19:59;26.20;66.20
5246;DHT22;54412;51.206;6.888;2022-09-01T15:22:46;26.00;65.00
5246;DHT22;54412;51.206;6.888;2022-09-01T15:25:16;26.00;66.90
5246;DHT22;54412;51.206;6.888;2022-09-01T15:27:43;26.00;66.40
5246;DHT22;54412;51.206;6.888;2022-09-01T15:30:11;26.00;66.00
5246;DHT22;54412;51.206;6.888;2022-09-01T15:32:40;25.90;66.10
5246;DHT22;54412;51.206;6.888;2022-09-01T15:35:07;25.80;65.60
5246;DHT22;54412;51.206;6.888;2022-09-01T15:37:33;25.70;65.70
5246;DHT22;54412;51.206;6.888;2022-09-01T15:39:59;25.70;66.10
5246;DHT22;54412;51.206;6.888;2022-09-01T15:42:25;25.70;67.70
5246;DHT22;54412;51.206;6.888;2022-09-01T15:44:51;25.70;67.70
5246;DHT22;54412;51.206;6.888;2022-09-01T15:47:17;25.70;66.50
5246;DHT22;54412;51.206;6.888;2022-09-01T15:49:43;25.60;66.40
5246;DHT22;54412;51.206;6.888;2022-09-01T15:52:09;25.60;67.70
5246;DHT22;54412;51.206;6.888;2022-09-01T15:54:37;25.70;67.50
5246;DHT22;54412;51.206;6.888;2022-09-01T15:57:04;25.80;68.00
5246;DHT22;54412;51.206;6.888;2022-09-01T15:59:30;25.80;66.70
5246;DHT22;54412;51.206;6.888;2022-09-01T16:01:57;26.00;68.00
5246;DHT22;54412;51.206;6.888;2022-09-01T16:04:23;25.90;66.50
5246;DHT22;54412;51.206;6.888;2022-09-01T16:06:49;26.00;67.60
5246;DHT22;54412;51.206;6.888;2022-09-01T16:09:16;26.00;67.40
5246;DHT22;54412;51.206;6.888;2022-09-01T16:11:45;26.10;68.00
5246;DHT22;54412;51.206;6.888;2022-09-01T16:14:11;26.20;66.70
5246;DHT22;54412;51.206;6.888;2022-09-01T16:17:05;26.20;66.70
5246;DHT22;54412;51.206;6.888;2022-09-01T16:19:57;26.20;66.90
5246;DHT22;54412;51.206;6.888;2022-09-01T16:22:35;26.20;66.90
5246;DHT22;54412;51.206;6.888;2022-09-01T16:25:26;26.10;66.40
5246;DHT22;54412;51.206;6.888;2022-09-01T16:27:56;26.10;66.40
5246;DHT22;54412;51.206;6.888;2022-09-01T16:30:29;26.10;66.30
5246;DHT22;54412;51.206;6.888;2022-09-01T16:33:02;26.00;66.40
5246;DHT22;54412;51.206;6.888;2022-09-01T16:35:43;25.90;66.40
5246;DHT22;54412;51.206;6.888;2022-09-01T16:38:45;25.90;67.40
5246;DHT22;54412;51.206;6.888;2022-09-01T16:44:21;25.80;67.20
5246;DHT22;54412;51.206;6.888;2022-09-01T16:49:43;25.70;67.90
5246;DHT22;54412;51.206;6.888;2022-09-01T16:52:19;25.60;67.20
5246;DHT22;54412;51.206;6.888;2022-09-01T17:00:53;25.50;67.30
5246;DHT22;54412;51.206;6.888;2022-09-01T17:11:45;25.50;68.50
5246;DHT22;54412;51.206;6.888;2022-09-01T17:14:21;25.50;69.50
5246;DHT22;54412;51.206;6.888;2022-09-01T17:17:19;25.50;69.50
5246;DHT22;54412;51.206;6.888;2022-09-01T17:19:49;25.40;69.80
5246;DHT22;54412;51.206;6.888;2022-09-01T17:22:19;25.40;70.00
5246;DHT22;54412;51.206;6.888;2022-09-01T17:24:49;25.20;71.20
5246;DHT22;54412;51.206;6.888;2022-09-01T17:30:23;25.10;70.60
5246;DHT22;54412;51.206;6.888;2022-09-01T17:36:14;24.90;72.60
5246;DHT22;54412;51.206;6.888;2022-09-01T17:39:07;24.90;73.70
5246;DHT22;54412;51.206;6.888;2022-09-01T17:42:03;24.80;74.50
5246;DHT22;54412;51.206;6.888;2022-09-01T17:45:08;24.70;75.40
5246;DHT22;54412;51.206;6.888;2022-09-01T17:50:46;24.60;76.10
5246;DHT22;54412;51.206;6.888;2022-09-01T17:59:30;24.20;79.10
5246;DHT22;54412;51.206;6.888;2022-09-01T18:05:21;24.00;79.40
5246;DHT22;54412;51.206;6.888;2022-09-01T18:16:10;23.80;78.40
5246;DHT22;54412;51.206;6.888;2022-09-01T18:18:41;23.70;78.30
5246;DHT22;54412;51.206;6.888;2022-09-01T18:21:12;23.70;76.50